createdAt,value
2023-01-11T00:05:49.743Z,2
2023-01-11T00:07:49.715Z,2
2023-01-11T00:08:49.723Z,1
2023-01-11T00:09:49.731Z,2
2023-01-11T00:10:49.710Z,2
2023-01-11T00:11:49.711Z,1
2023-01-11T00:12:49.730Z,2
2023-01-11T00:13:49.720Z,1
2023-01-11T00:15:49.796Z,2
2023-01-11T00:16:49.735Z,3
2023-01-11T00:17:49.712Z,3
2023-01-11T00:18:49.712Z,1
2023-01-11T00:19:49.711Z,2
2023-01-11T00:20:49.716Z,3
2023-01-11T00:21:49.714Z,3
2023-01-11T00:22:49.717Z,2
2023-01-11T00:24:49.720Z,3
2023-01-11T00:25:49.722Z,3
2023-01-11T00:26:49.725Z,1
2023-01-11T00:28:49.724Z,2
2023-01-11T00:29:49.716Z,1
2023-01-11T00:30:49.712Z,1
2023-01-11T00:31:49.723Z,2
2023-01-11T00:32:49.738Z,2
2023-01-11T00:34:49.772Z,1
2023-01-11T00:36:49.764Z,2
2023-01-11T00:37:49.737Z,1
2023-01-11T00:38:49.739Z,2
2023-01-11T00:39:49.731Z,2
2023-01-11T00:40:49.713Z,2
2023-01-11T00:41:49.722Z,2
2023-01-11T00:43:49.731Z,1
2023-01-11T00:44:49.724Z,2
2023-01-11T00:45:49.797Z,2
2023-01-11T00:46:49.734Z,2
2023-01-11T00:47:49.735Z,2
2023-01-11T00:49:49.717Z,3
2023-01-11T00:50:49.733Z,2
2023-01-11T00:51:49.727Z,2
2023-01-11T00:52:49.733Z,1
2023-01-11T00:53:49.739Z,2
2023-01-11T00:54:49.728Z,2
2023-01-11T00:55:49.753Z,2
2023-01-11T00:57:49.745Z,2
2023-01-11T00:58:49.734Z,2
2023-01-11T00:59:49.726Z,2
2023-01-11T01:00:49.718Z,1
2023-01-11T01:01:49.735Z,2
2023-01-11T01:02:49.797Z,2
2023-01-11T01:03:49.725Z,2
2023-01-11T01:04:49.741Z,1
2023-01-11T01:05:49.739Z,2
2023-01-11T01:06:49.765Z,1
2023-01-11T01:07:49.772Z,2
2023-01-11T01:08:49.743Z,2
2023-01-11T01:10:49.789Z,2
2023-01-11T01:11:49.735Z,1
2023-01-11T01:12:49.745Z,1
2023-01-11T01:13:49.735Z,2
2023-01-11T01:14:49.728Z,1
2023-01-11T01:15:49.813Z,2
2023-01-11T01:16:49.805Z,2
2023-01-11T01:18:49.741Z,2
2023-01-11T01:19:49.815Z,2
2023-01-11T01:20:49.739Z,2
2023-01-11T01:21:49.738Z,1
2023-01-11T01:22:49.721Z,1
2023-01-11T01:23:49.733Z,2
2023-01-11T01:24:49.744Z,2
2023-01-11T01:25:49.738Z,2
2023-01-11T01:26:49.722Z,2
2023-01-11T01:27:49.719Z,2
2023-01-11T01:28:49.732Z,1
2023-01-11T01:29:49.742Z,2
2023-01-11T01:30:49.759Z,2
2023-01-11T01:31:49.741Z,1
2023-01-11T01:32:49.751Z,3
2023-01-11T01:33:49.731Z,1
2023-01-11T01:34:49.743Z,2
2023-01-11T01:35:49.766Z,1
2023-01-11T01:36:49.744Z,2
2023-01-11T01:37:49.744Z,1
2023-01-11T01:39:49.730Z,2
2023-01-11T01:40:49.732Z,1
2023-01-11T01:41:49.747Z,1
2023-01-11T01:42:49.743Z,1
2023-01-11T01:43:49.795Z,1
2023-01-11T01:44:49.783Z,1
2023-01-11T01:45:49.758Z,1
2023-01-11T01:46:49.749Z,1
2023-01-11T01:47:49.749Z,1
2023-01-11T01:48:49.752Z,1
2023-01-11T01:49:49.752Z,1
2023-01-11T01:50:49.761Z,1
2023-01-11T01:51:49.753Z,1
2023-01-11T01:52:49.732Z,2
2023-01-11T01:53:49.726Z,4
2023-01-11T01:54:49.743Z,1
2023-01-11T01:55:49.731Z,1
2023-01-11T01:56:49.752Z,1
2023-01-11T01:58:49.736Z,1
2023-01-11T01:59:49.735Z,2
2023-01-11T02:00:49.750Z,2
2023-01-11T02:01:49.899Z,1
2023-01-11T02:04:49.743Z,1
2023-01-11T02:06:49.825Z,1
2023-01-11T02:07:49.759Z,2
2023-01-11T02:08:49.758Z,1
2023-01-11T02:09:49.774Z,1
2023-01-11T02:11:49.749Z,1
2023-01-11T02:12:49.744Z,1
2023-01-11T02:13:49.757Z,1
2023-01-11T02:14:49.760Z,1
2023-01-11T02:15:49.759Z,1
2023-01-11T02:16:49.769Z,1
2023-01-11T02:17:49.765Z,2
2023-01-11T02:18:49.745Z,1
2023-01-11T02:19:49.741Z,1
2023-01-11T02:20:49.751Z,1
2023-01-11T02:21:49.749Z,2
2023-01-11T02:22:49.758Z,1
2023-01-11T02:24:49.751Z,1
2023-01-11T02:25:49.821Z,1
2023-01-11T02:27:49.751Z,1
2023-01-11T02:28:49.738Z,1
2023-01-11T02:29:49.774Z,1
2023-01-11T02:30:49.754Z,1
2023-01-11T02:32:49.741Z,1
2023-01-11T02:33:49.740Z,1
2023-01-11T02:34:49.762Z,2
2023-01-11T02:35:49.748Z,1
2023-01-11T02:36:49.747Z,1
2023-01-11T02:37:49.739Z,2
2023-01-11T02:38:49.743Z,1
2023-01-11T02:39:49.749Z,1
2023-01-11T02:40:49.770Z,1
2023-01-11T02:41:49.749Z,1
2023-01-11T02:42:49.768Z,1
2023-01-11T02:43:49.767Z,1
2023-01-11T02:46:49.864Z,1
2023-01-11T02:47:49.767Z,1
2023-01-11T02:48:49.767Z,1
2023-01-11T02:49:49.758Z,2
2023-01-11T02:50:49.771Z,1
2023-01-11T02:51:49.742Z,1
2023-01-11T02:53:49.764Z,1
2023-01-11T02:54:49.766Z,1
2023-01-11T02:55:49.758Z,1
2023-01-11T02:56:49.765Z,2
2023-01-11T02:57:49.753Z,1
2023-01-11T02:58:49.749Z,1
2023-01-11T02:59:49.767Z,2
2023-01-11T03:00:49.766Z,1
2023-01-11T03:01:49.825Z,1
2023-01-11T03:02:49.805Z,1
2023-01-11T03:03:49.751Z,1
2023-01-11T03:04:49.764Z,1
2023-01-11T03:05:49.760Z,1
2023-01-11T03:06:49.770Z,2
2023-01-11T03:07:49.790Z,1
2023-01-11T03:08:49.746Z,1
2023-01-11T03:09:49.755Z,2
2023-01-11T03:10:49.766Z,1
2023-01-11T03:11:49.799Z,1
2023-01-11T03:12:49.798Z,2
2023-01-11T03:13:49.793Z,2
2023-01-11T03:14:49.777Z,2
2023-01-11T03:16:49.758Z,2
2023-01-11T03:17:49.786Z,1
2023-01-11T03:18:49.772Z,1
2023-01-11T03:22:49.757Z,1
2023-01-11T03:23:49.774Z,1
2023-01-11T03:24:49.793Z,2
2023-01-11T03:25:49.777Z,1
2023-01-11T03:26:49.766Z,1
2023-01-11T03:27:49.761Z,1
2023-01-11T03:28:49.751Z,1
2023-01-11T03:29:49.759Z,2
2023-01-11T03:30:49.755Z,2
2023-01-11T03:31:49.777Z,1
2023-01-11T03:32:49.770Z,1
2023-01-11T03:33:49.767Z,2
2023-01-11T03:34:49.770Z,1
2023-01-11T03:35:49.778Z,2
2023-01-11T03:37:49.769Z,1
2023-01-11T03:38:49.776Z,2
2023-01-11T03:39:49.765Z,1
2023-01-11T03:40:49.770Z,3
2023-01-11T03:41:49.764Z,1
2023-01-11T03:42:49.792Z,2
2023-01-11T03:43:49.767Z,1
2023-01-11T03:45:49.798Z,1
2023-01-11T03:46:49.820Z,2
2023-01-11T03:47:49.771Z,2
2023-01-11T03:48:49.754Z,2
2023-01-11T03:50:49.783Z,1
2023-01-11T03:51:49.769Z,1
2023-01-11T03:52:49.769Z,1
2023-01-11T03:53:49.766Z,2
2023-01-11T03:54:49.766Z,1
2023-01-11T03:55:49.761Z,1
2023-01-11T03:56:49.771Z,2
2023-01-11T03:57:49.777Z,1
2023-01-11T03:58:49.789Z,1
2023-01-11T03:59:49.812Z,1
2023-01-11T04:00:49.811Z,1
2023-01-11T04:01:49.773Z,1
2023-01-11T04:02:49.793Z,1
2023-01-11T04:03:49.813Z,1
2023-01-11T04:04:49.768Z,1
2023-01-11T04:06:49.845Z,1
2023-01-11T04:07:49.767Z,1
2023-01-11T04:08:49.783Z,2
2023-01-11T04:09:49.767Z,3
2023-01-11T04:11:49.794Z,1
2023-01-11T04:12:49.793Z,1
2023-01-11T04:13:49.841Z,1
2023-01-11T04:14:49.799Z,1
2023-01-11T04:15:49.767Z,2
2023-01-11T04:16:49.787Z,1
2023-01-11T04:17:49.795Z,2
2023-01-11T04:18:49.774Z,1
2023-01-11T04:19:49.773Z,1
2023-01-11T04:20:49.792Z,1
2023-01-11T04:21:49.781Z,1
2023-01-11T04:22:49.770Z,1
2023-01-11T04:23:49.776Z,1
2023-01-11T04:24:49.793Z,2
2023-01-11T04:25:49.770Z,1
2023-01-11T04:27:49.794Z,2
2023-01-11T04:28:49.787Z,2
2023-01-11T04:29:49.782Z,3
2023-01-11T04:30:49.782Z,2
2023-01-11T04:33:49.801Z,2
2023-01-11T04:34:49.782Z,2
2023-01-11T04:35:49.777Z,2
2023-01-11T04:36:49.779Z,2
2023-01-11T04:38:49.784Z,3
2023-01-11T04:39:49.782Z,1
2023-01-11T04:40:49.783Z,1
2023-01-11T04:41:49.793Z,2
2023-01-11T04:42:49.785Z,3
2023-01-11T04:43:49.795Z,3
2023-01-11T04:44:49.815Z,2
2023-01-11T04:45:49.837Z,2
2023-01-11T04:46:49.785Z,1
2023-01-11T04:47:49.785Z,2
2023-01-11T04:48:49.814Z,1
2023-01-11T04:49:49.778Z,1
2023-01-11T04:51:49.797Z,2
2023-01-11T04:53:49.795Z,2
2023-01-11T04:54:49.790Z,2
2023-01-11T04:55:49.800Z,1
2023-01-11T04:56:49.786Z,2
2023-01-11T04:57:49.791Z,2
2023-01-11T04:59:49.785Z,2
2023-01-11T05:00:49.813Z,2
2023-01-11T05:01:49.780Z,2
2023-01-11T05:03:49.827Z,2
2023-01-11T05:04:49.801Z,2
2023-01-11T05:05:49.789Z,1
2023-01-11T05:06:49.841Z,3
2023-01-11T05:07:49.805Z,3
2023-01-11T05:08:49.799Z,3
2023-01-11T05:09:49.801Z,1
2023-01-11T05:10:49.809Z,2
2023-01-11T05:12:49.805Z,3
2023-01-11T05:13:49.797Z,2
2023-01-11T05:14:49.794Z,2
2023-01-11T05:15:49.815Z,2
2023-01-11T05:16:49.834Z,3
2023-01-11T05:17:49.799Z,2
2023-01-11T05:18:49.787Z,3
2023-01-11T05:20:49.802Z,2
2023-01-11T05:21:49.787Z,3
2023-01-11T05:22:49.801Z,3
2023-01-11T05:23:49.812Z,2
2023-01-11T05:24:49.797Z,2
2023-01-11T05:25:49.790Z,3
2023-01-11T05:26:49.803Z,2
2023-01-11T05:27:49.807Z,1
2023-01-11T05:28:49.802Z,2
2023-01-11T05:29:49.802Z,2
2023-01-11T05:31:49.827Z,2
2023-01-11T05:32:49.782Z,2
2023-01-11T05:33:49.798Z,2
2023-01-11T05:34:49.792Z,2
2023-01-11T05:35:49.795Z,3
2023-01-11T05:36:49.798Z,3
2023-01-11T05:37:49.800Z,2
2023-01-11T05:38:49.801Z,2
2023-01-11T05:39:49.801Z,2
2023-01-11T05:41:49.811Z,2
2023-01-11T05:42:49.805Z,3
2023-01-11T05:43:49.786Z,4
2023-01-11T05:44:49.801Z,3
2023-01-11T05:45:49.850Z,4
2023-01-11T05:47:49.827Z,4
2023-01-11T05:48:49.805Z,4
2023-01-11T05:49:49.816Z,3
2023-01-11T05:50:49.803Z,2
2023-01-11T05:51:49.836Z,4
2023-01-11T05:52:49.833Z,3
2023-01-11T05:54:49.804Z,4
2023-01-11T05:55:49.803Z,3
2023-01-11T05:56:49.822Z,2
2023-01-11T05:57:49.803Z,3
2023-01-11T05:58:49.795Z,2
2023-01-11T05:59:49.803Z,2
2023-01-11T06:00:49.810Z,3
2023-01-11T06:02:49.965Z,3
2023-01-11T06:03:49.824Z,2
2023-01-11T06:04:49.816Z,3
2023-01-11T06:05:49.796Z,2
2023-01-11T06:06:49.863Z,3
2023-01-11T06:07:49.809Z,3
2023-01-11T06:08:49.824Z,3
2023-01-11T06:10:49.812Z,3
2023-01-11T06:11:49.824Z,4
2023-01-11T06:12:49.820Z,2
2023-01-11T06:13:49.813Z,3
2023-01-11T06:15:49.825Z,3
2023-01-11T06:16:49.885Z,2
2023-01-11T06:17:49.835Z,3
2023-01-11T06:18:49.828Z,3
2023-01-11T06:19:49.821Z,3
2023-01-11T06:20:49.828Z,3
2023-01-11T06:21:49.819Z,3
2023-01-11T06:24:49.833Z,3
2023-01-11T06:26:49.807Z,3
2023-01-11T06:27:49.804Z,3
2023-01-11T06:28:49.807Z,3
2023-01-11T06:29:49.833Z,2
2023-01-11T06:30:49.829Z,2
2023-01-11T06:31:49.806Z,2
2023-01-11T06:32:49.808Z,2
2023-01-11T06:34:49.827Z,3
2023-01-11T06:35:49.814Z,2
2023-01-11T06:36:49.801Z,2
2023-01-11T06:37:49.828Z,2
2023-01-11T06:38:49.820Z,1
2023-01-11T06:39:49.833Z,2
2023-01-11T06:40:49.807Z,1
2023-01-11T06:41:49.833Z,1
2023-01-11T06:42:49.823Z,4
2023-01-11T06:43:49.833Z,2
2023-01-11T06:45:49.870Z,1
2023-01-11T06:46:49.815Z,3
2023-01-11T06:47:49.811Z,3
2023-01-11T06:48:49.840Z,3
2023-01-11T06:50:49.833Z,3
2023-01-11T06:51:49.826Z,3
2023-01-11T06:52:49.833Z,3
2023-01-11T06:53:49.837Z,3
2023-01-11T06:55:49.807Z,2
2023-01-11T06:56:49.813Z,3
2023-01-11T06:57:49.821Z,3
2023-01-11T06:58:49.811Z,4
2023-01-11T06:59:49.829Z,3
2023-01-11T07:00:49.829Z,4
2023-01-11T07:01:49.824Z,3
2023-01-11T07:02:49.814Z,3
2023-01-11T07:03:49.813Z,3
2023-01-11T07:04:49.846Z,2
2023-01-11T07:06:49.828Z,3
2023-01-11T07:08:49.829Z,4
2023-01-11T07:09:49.854Z,5
2023-01-11T07:11:49.821Z,4
2023-01-11T07:12:49.829Z,5
2023-01-11T07:13:49.820Z,3
2023-01-11T07:16:49.852Z,4
2023-01-11T07:17:49.832Z,4
2023-01-11T07:18:49.841Z,6
2023-01-11T07:19:49.848Z,4
2023-01-11T07:20:49.828Z,6
2023-01-11T07:21:49.839Z,5
2023-01-11T07:22:49.840Z,4
2023-01-11T07:23:49.847Z,5
2023-01-11T07:25:50.062Z,5
2023-01-11T07:26:49.819Z,4
2023-01-11T07:27:49.833Z,4
2023-01-11T07:28:49.842Z,5
2023-01-11T07:29:49.844Z,5
2023-01-11T07:30:58.563Z,5
2023-01-11T07:31:49.839Z,4
2023-01-11T07:32:49.834Z,4
2023-01-11T07:33:49.826Z,4
2023-01-11T07:34:49.847Z,4
2023-01-11T07:35:49.845Z,4
2023-01-11T07:36:49.817Z,4
2023-01-11T07:37:49.874Z,4
2023-01-11T07:38:49.837Z,5
2023-01-11T07:39:49.848Z,3
2023-01-11T07:40:49.835Z,5
2023-01-11T07:41:49.831Z,4
2023-01-11T07:42:49.847Z,4
2023-01-11T07:43:49.868Z,4
2023-01-11T07:44:49.827Z,6
2023-01-11T07:45:50.166Z,5
2023-01-11T07:46:49.929Z,5
2023-01-11T07:47:49.842Z,4
2023-01-11T07:48:49.848Z,4
2023-01-11T07:49:49.847Z,4
2023-01-11T07:51:49.843Z,4
2023-01-11T07:55:49.851Z,3
2023-01-11T07:56:49.856Z,5
2023-01-11T07:57:49.848Z,3
2023-01-11T07:59:49.842Z,3
2023-01-11T08:00:49.843Z,4
2023-01-11T08:01:49.850Z,4
2023-01-11T08:02:49.958Z,4
2023-01-11T08:03:49.919Z,4
2023-01-11T08:04:49.841Z,4
2023-01-11T08:05:49.839Z,4
2023-01-11T08:07:49.841Z,4
2023-01-11T08:09:49.878Z,3
2023-01-11T08:12:51.541Z,3
2023-01-11T08:13:49.842Z,1
2023-01-11T08:14:49.854Z,2
2023-01-11T08:15:49.889Z,2
2023-01-11T08:18:49.871Z,3
2023-01-11T08:19:49.861Z,4
2023-01-11T08:20:49.845Z,5
2023-01-11T08:22:49.872Z,3
2023-01-11T08:23:49.867Z,7
2023-01-11T08:24:49.846Z,3
2023-01-11T08:25:49.857Z,3
2023-01-11T08:26:49.887Z,4
2023-01-11T08:27:49.848Z,3
2023-01-11T08:29:49.861Z,4
2023-01-11T08:30:49.885Z,8
2023-01-11T08:31:49.843Z,5
2023-01-11T08:32:49.832Z,5
2023-01-11T08:33:49.840Z,5
2023-01-11T08:34:49.851Z,5
2023-01-11T08:35:49.841Z,4
2023-01-11T08:38:49.862Z,7
2023-01-11T08:39:49.874Z,6
2023-01-11T08:40:49.855Z,5
2023-01-11T08:41:49.856Z,7
2023-01-11T08:42:49.864Z,5
2023-01-11T08:43:49.862Z,4
2023-01-11T08:45:49.842Z,9
2023-01-11T08:46:52.460Z,7
2023-01-11T08:47:49.850Z,7
2023-01-11T08:48:49.855Z,5
2023-01-11T08:50:49.853Z,6
2023-01-11T08:51:49.853Z,9
2023-01-11T08:53:49.852Z,8
2023-01-11T08:54:49.857Z,7
2023-01-11T08:55:49.849Z,5
2023-01-11T08:56:49.857Z,8
2023-01-11T08:59:49.871Z,9
2023-01-11T09:00:49.888Z,5
2023-01-11T09:01:49.910Z,7
2023-01-11T09:02:49.898Z,7
2023-01-11T09:06:49.870Z,5
2023-01-11T09:07:49.872Z,11
2023-01-11T09:08:49.861Z,7
2023-01-11T09:11:49.871Z,8
2023-01-11T09:12:49.856Z,7
2023-01-11T09:13:49.856Z,9
2023-01-11T09:14:49.869Z,6
2023-01-11T09:15:49.906Z,12
2023-01-11T09:16:49.857Z,7
2023-01-11T09:19:49.864Z,8
2023-01-11T09:20:49.864Z,7
2023-01-11T09:21:49.904Z,8
2023-01-11T09:24:49.868Z,6
2023-01-11T09:25:49.876Z,6
2023-01-11T09:26:49.906Z,7
2023-01-11T09:27:49.857Z,10
2023-01-11T09:28:49.881Z,7
2023-01-11T09:30:49.864Z,7
2023-01-11T09:31:49.872Z,9
2023-01-11T09:32:49.860Z,8
2023-01-11T09:33:49.852Z,10
2023-01-11T09:34:49.877Z,10
2023-01-11T09:35:49.863Z,9
2023-01-11T09:38:49.863Z,9
2023-01-11T09:39:49.869Z,12
2023-01-11T09:42:49.865Z,9
2023-01-11T09:44:49.896Z,9
2023-01-11T09:47:49.863Z,6
2023-01-11T09:48:49.878Z,11
2023-01-11T09:49:49.871Z,8
2023-01-11T09:51:49.884Z,10
2023-01-11T09:52:49.873Z,9
2023-01-11T09:53:49.880Z,8
2023-01-11T09:54:49.916Z,11
2023-01-11T09:56:49.875Z,9
2023-01-11T10:00:50.000Z,9
2023-01-11T10:03:49.898Z,9
2023-01-11T10:18:31.221Z,9
2023-01-11T10:19:17.042Z,10
2023-01-11T10:21:49.881Z,10
2023-01-11T10:22:49.895Z,14
2023-01-11T10:28:49.908Z,12
2023-01-11T10:33:49.900Z,10
2023-01-11T10:35:49.918Z,11
2023-01-11T10:37:49.885Z,16
2023-01-11T10:39:49.888Z,9
2023-01-11T10:45:49.945Z,10
2023-01-11T10:47:49.889Z,13
2023-01-11T10:48:49.923Z,13
2023-01-11T10:51:49.890Z,10
2023-01-11T10:54:50.306Z,12
2023-01-11T11:00:50.276Z,11
2023-01-11T11:03:49.933Z,10
2023-01-11T11:24:49.895Z,10
2023-01-11T11:40:49.906Z,9
2023-01-11T12:10:49.904Z,9
2023-01-11T12:20:49.915Z,12
2023-01-11T12:45:49.996Z,8
2023-01-11T13:54:49.950Z,12
2023-01-11T14:08:49.951Z,11
2023-01-11T14:14:49.946Z,8
2023-01-11T14:17:49.957Z,11
2023-01-11T15:13:50.702Z,13
2023-01-11T16:59:50.010Z,10
2023-01-11T17:15:50.006Z,8
2023-01-11T17:35:50.002Z,11
2023-01-11T18:15:50.028Z,10
2023-01-11T18:17:50.069Z,8
2023-01-11T19:57:50.045Z,7
2023-01-11T21:11:50.077Z,9
2023-01-11T21:12:50.083Z,6
2023-01-11T22:19:50.260Z,7
2023-01-11T23:29:50.485Z,11
